PWSweather.com
Personal Weather Stations
Station Observations
BAYPARK
Bay Park, Ny, East Rockaway, NY 11518

Bay Park, NyEast Rockaway, NY 11518

Lat: 40.6310098, Lon: -73.6727287

Elevation: 11

Station Type: AcuRite Pro

https://www.awekas.at/en/instrument.php?id=14894

Latest ConditionsUpdated 9:45:00 PM EST Friday, Jan 17, 2020
Currently Today's Max Today's Min Today's Average
Temperature 22.5°F-5.3°C 34.1°F1.2°C 22.3°F-5.4°C 27.0°F-2.8°C
Dew Point 2.7°F-16.3°C 20.1°F-6.6°C -4.8°F-20.4°C 6.2°F-14.3°C
Winds 2.4 mph ESE3.9 kmh ESE 9.5 mph -15.3 kmh - - 5.2 mph 8.4 kmh
Wind Gusts 4.7 mph7.6 kmh 23.3 mph37.5 kmh - -
Humidity 42% 60% 27% 41%
Pressure 30.68 in1038.9 mb 30.69 in1039.3 mb 30.18 in1022.0 mb -
Hour Temp Dew Point Humidity Winds Wind Gusts Pressure Precip Precip Rate Daily Precip Total
09:45 PM 22.5°F-5.3°C 2.7°F-16.3°C 42% 2.4 mph ESE3.9 kmh ESE 4.7 mph7.6 kmh 30.68 in1038.9 mb 0.00 in0.0 mm 0.00 in0.0 mm 0.00 in0.0 mm
09:40 PM 22.6°F-5.2°C 2.5°F-16.4°C 41% 2.2 mph E3.5 kmh E 4.2 mph6.8 kmh 30.68 in1038.9 mb 0.00 in0.0 mm 0.00 in0.0 mm 0.00 in0.0 mm
09:35 PM 22.8°F-5.1°C 2.7°F-16.3°C 41% 1.4 mph N2.3 kmh N 3.7 mph6.0 kmh 30.68 in1038.9 mb 0.00 in0.0 mm 0.00 in0.0 mm 0.00 in0.0 mm
09:30 PM 22.8°F-5.1°C 1.8°F-16.8°C 39% 0.7 mph ENE1.1 kmh ENE 2.2 mph3.5 kmh 30.68 in1038.9 mb 0.00 in0.0 mm 0.00 in0.0 mm 0.00 in0.0 mm
09:25 PM 23.1°F-4.9°C 1.3°F-17.1°C 38% 1.8 mph ESE2.9 kmh ESE 4.2 mph6.8 kmh 30.68 in1038.9 mb 0.00 in0.0 mm 0.00 in0.0 mm 0.00 in0.0 mm
09:20 PM 23.4°F-4.8°C 1.5°F-16.9°C 38% 2.1 mph SE3.4 kmh SE 3.7 mph6.0 kmh 30.68 in1038.9 mb 0.00 in0.0 mm 0.00 in0.0 mm 0.00 in0.0 mm
09:15 PM 23.4°F-4.8°C 1.6°F-16.9°C 38% 0.8 mph WSW1.3 kmh WSW 2.7 mph4.3 kmh 30.68 in1038.9 mb 0.00 in0.0 mm 0.00 in0.0 mm 0.00 in0.0 mm
09:10 PM 23.2°F-4.9°C 1.0°F-17.2°C 37% 1.6 mph E2.6 kmh E 2.7 mph4.3 kmh 30.68 in1038.9 mb 0.00 in0.0 mm 0.00 in0.0 mm 0.00 in0.0 mm
09:05 PM 23.2°F-4.9°C 0.9°F-17.3°C 37% 2.7 mph ENE4.3 kmh ENE 4.7 mph7.6 kmh 30.68 in1038.9 mb 0.00 in0.0 mm 0.00 in0.0 mm 0.00 in0.0 mm
09:00 PM 23.4°F-4.8°C 1.0°F-17.2°C 37% 1.3 mph E2.1 kmh E 2.2 mph3.5 kmh 30.68 in1038.9 mb 0.00 in0.0 mm 0.00 in0.0 mm 0.00 in0.0 mm
08:55 PM 23.5°F-4.7°C 1.1°F-17.2°C 37% 2.1 mph ESE3.4 kmh ESE 5.3 mph8.5 kmh 30.68 in1038.9 mb 0.00 in0.0 mm 0.00 in0.0 mm 0.00 in0.0 mm
08:50 PM 23.7°F-4.6°C 1.3°F-17.1°C 37% 2.8 mph SSE4.5 kmh SSE 4.7 mph7.6 kmh 30.68 in1038.9 mb 0.00 in0.0 mm 0.00 in0.0 mm 0.00 in0.0 mm
08:45 PM 23.7°F-4.6°C 1.0°F-17.2°C 36% 0.7 mph SW1.1 kmh SW 4.2 mph6.8 kmh 30.67 in1038.6 mb 0.00 in0.0 mm 0.00 in0.0 mm 0.00 in0.0 mm
08:40 PM 23.9°F-4.5°C 0.9°F-17.3°C 36% 2.1 mph WNW3.4 kmh WNW 3.7 mph6.0 kmh 30.67 in1038.6 mb 0.00 in0.0 mm 0.00 in0.0 mm 0.00 in0.0 mm
08:35 PM 23.9°F-4.5°C 0.9°F-17.3°C 36% 2.4 mph WSW3.9 kmh WSW 3.2 mph5.1 kmh 30.67 in1038.6 mb 0.00 in0.0 mm 0.00 in0.0 mm 0.00 in0.0 mm
08:30 PM 24.1°F-4.4°C 1.1°F-17.2°C 36% 0.8 mph N1.3 kmh N 2.7 mph4.3 kmh 30.68 in1038.9 mb 0.00 in0.0 mm 0.00 in0.0 mm 0.00 in0.0 mm
08:25 PM 24.3°F-4.3°C 0.7°F-17.4°C 35% 1.3 mph E2.1 kmh E 4.2 mph6.8 kmh 30.68 in1038.9 mb 0.00 in0.0 mm 0.00 in0.0 mm 0.00 in0.0 mm
08:20 PM 24.4°F-4.2°C 0.7°F-17.4°C 35% 2.7 mph N4.3 kmh N 4.7 mph7.6 kmh 30.68 in1038.9 mb 0.00 in0.0 mm 0.00 in0.0 mm 0.00 in0.0 mm
08:15 PM 24.4°F-4.2°C 0.8°F-17.3°C 35% 3.9 mph S6.3 kmh S 6.3 mph10.1 kmh 30.68 in1038.9 mb 0.00 in0.0 mm 0.00 in0.0 mm 0.00 in0.0 mm
08:10 PM 24.4°F-4.2°C 1.3°F-17.1°C 36% 1.8 mph N2.9 kmh N 3.2 mph5.1 kmh 30.68 in1038.9 mb 0.00 in0.0 mm 0.00 in0.0 mm 0.00 in0.0 mm
08:05 PM 24.6°F-4.1°C 1.5°F-16.9°C 36% 0.7 mph W1.1 kmh W 4.2 mph6.8 kmh 30.68 in1038.9 mb 0.00 in0.0 mm 0.00 in0.0 mm 0.00 in0.0 mm
08:00 PM 24.6°F-4.1°C 1.5°F-16.9°C 36% 2.1 mph WSW3.4 kmh WSW 3.7 mph6.0 kmh 30.68 in1038.9 mb 0.00 in0.0 mm 0.00 in0.0 mm 0.00 in0.0 mm
07:55 PM 24.8°F-4.0°C 1.3°F-17.1°C 36% 1.5 mph NNE2.4 kmh NNE 4.7 mph7.6 kmh 30.68 in1038.9 mb 0.00 in0.0 mm 0.00 in0.0 mm 0.00 in0.0 mm
07:50 PM 25.0°F-3.9°C 1.2°F-17.1°C 35% 2.2 mph NW3.5 kmh NW 5.3 mph8.5 kmh 30.69 in1039.3 mb 0.00 in0.0 mm 0.00 in0.0 mm 0.00 in0.0 mm
07:45 PM 25.0°F-3.9°C 1.3°F-17.1°C 35% 3.0 mph WSW4.8 kmh WSW 5.3 mph8.5 kmh 30.68 in1038.9 mb 0.00 in0.0 mm 0.00 in0.0 mm 0.00 in0.0 mm
07:40 PM 25.1°F-3.8°C 1.4°F-17.0°C 35% 1.7 mph WSW2.7 kmh WSW 4.2 mph6.8 kmh 30.68 in1038.9 mb 0.00 in0.0 mm 0.00 in0.0 mm 0.00 in0.0 mm
07:35 PM 25.2°F-3.8°C 1.5°F-16.9°C 35% 1.5 mph NW2.4 kmh NW 4.2 mph6.8 kmh 30.68 in1038.9 mb 0.00 in0.0 mm 0.00 in0.0 mm 0.00 in0.0 mm
07:30 PM 25.3°F-3.7°C 1.5°F-16.9°C 35% 3.2 mph WSW5.1 kmh WSW 7.3 mph11.7 kmh 30.69 in1039.3 mb 0.00 in0.0 mm 0.00 in0.0 mm 0.00 in0.0 mm
07:25 PM 25.4°F-3.7°C 1.1°F-17.2°C 34% 3.1 mph WNW5.0 kmh WNW 5.3 mph8.5 kmh 30.69 in1039.3 mb 0.00 in0.0 mm 0.00 in0.0 mm 0.00 in0.0 mm
07:20 PM 25.5°F-3.6°C 1.1°F-17.2°C 34% 2.4 mph SW3.9 kmh SW 3.2 mph5.1 kmh 30.68 in1038.9 mb 0.00 in0.0 mm 0.00 in0.0 mm 0.00 in0.0 mm
07:15 PM 25.6°F-3.6°C 1.2°F-17.1°C 34% 3.4 mph NW5.5 kmh NW 5.3 mph8.5 kmh 30.68 in1038.9 mb 0.00 in0.0 mm 0.00 in0.0 mm 0.00 in0.0 mm
07:10 PM 25.5°F-3.6°C 1.6°F-16.9°C 35% 4.5 mph W7.2 kmh W 7.8 mph12.6 kmh 30.68 in1038.9 mb 0.00 in0.0 mm 0.00 in0.0 mm 0.00 in0.0 mm
07:05 PM 25.4°F-3.7°C 1.9°F-16.7°C 35% 4.0 mph W6.4 kmh W 7.8 mph12.6 kmh 30.69 in1039.3 mb 0.00 in0.0 mm 0.00 in0.0 mm 0.00 in0.0 mm
07:00 PM 25.3°F-3.7°C 2.1°F-16.6°C 36% 3.2 mph N5.1 kmh N 5.8 mph9.3 kmh 30.69 in1039.3 mb 0.00 in0.0 mm 0.00 in0.0 mm 0.00 in0.0 mm
06:55 PM 25.3°F-3.7°C 1.9°F-16.7°C 36% 1.5 mph NW2.4 kmh NW 4.7 mph7.6 kmh 30.69 in1039.3 mb 0.00 in0.0 mm 0.00 in0.0 mm 0.00 in0.0 mm
06:50 PM 25.3°F-3.7°C 1.5°F-16.9°C 35% 2.1 mph WNW3.4 kmh WNW 4.2 mph6.8 kmh 30.69 in1039.3 mb 0.00 in0.0 mm 0.00 in0.0 mm 0.00 in0.0 mm
06:45 PM 25.2°F-3.8°C 1.4°F-17.0°C 35% 1.5 mph SW2.4 kmh SW 5.8 mph9.3 kmh 30.69 in1039.3 mb 0.00 in0.0 mm 0.00 in0.0 mm 0.00 in0.0 mm
06:40 PM 25.3°F-3.7°C 1.4°F-17.0°C 35% 0.6 mph ESE1.0 kmh ESE 2.2 mph3.5 kmh 30.68 in1038.9 mb 0.00 in0.0 mm 0.00 in0.0 mm 0.00 in0.0 mm
06:35 PM 25.5°F-3.6°C 1.1°F-17.2°C 34% 1.1 mph N1.8 kmh N 1.1 mph1.8 kmh 30.68 in1038.9 mb 0.00 in0.0 mm 0.00 in0.0 mm 0.00 in0.0 mm
06:30 PM 25.8°F-3.4°C 1.3°F-17.1°C 34% 1.3 mph WSW2.1 kmh WSW 2.2 mph3.5 kmh 30.68 in1038.9 mb 0.00 in0.0 mm 0.00 in0.0 mm 0.00 in0.0 mm
06:25 PM 25.9°F-3.4°C 0.8°F-17.3°C 33% 1.5 mph NW2.4 kmh NW 4.2 mph6.8 kmh 30.68 in1038.9 mb 0.00 in0.0 mm 0.00 in0.0 mm 0.00 in0.0 mm
06:20 PM 26.1°F-3.3°C 1.0°F-17.2°C 33% 3.0 mph S4.8 kmh S 6.3 mph10.1 kmh 30.68 in1038.9 mb 0.00 in0.0 mm 0.00 in0.0 mm 0.00 in0.0 mm
06:15 PM 26.1°F-3.3°C 1.0°F-17.2°C 33% 3.0 mph SW4.8 kmh SW 5.3 mph8.5 kmh 30.68 in1038.9 mb 0.00 in0.0 mm 0.00 in0.0 mm 0.00 in0.0 mm
06:10 PM 26.1°F-3.3°C 1.0°F-17.2°C 33% 2.6 mph W4.2 kmh W 5.8 mph9.3 kmh 30.68 in1038.9 mb 0.00 in0.0 mm 0.00 in0.0 mm 0.00 in0.0 mm
06:05 PM 26.1°F-3.3°C 1.0°F-17.2°C 33% 2.4 mph SW3.9 kmh SW 5.3 mph8.5 kmh 30.67 in1038.6 mb 0.00 in0.0 mm 0.00 in0.0 mm 0.00 in0.0 mm
06:00 PM 26.1°F-3.3°C 1.0°F-17.2°C 33% 2.4 mph WNW3.9 kmh WNW 4.2 mph6.8 kmh 30.67 in1038.6 mb 0.00 in0.0 mm 0.00 in0.0 mm 0.00 in0.0 mm
05:55 PM 26.1°F-3.3°C 1.0°F-17.2°C 33% 2.5 mph N4.0 kmh N 4.7 mph7.6 kmh 30.67 in1038.6 mb 0.00 in0.0 mm 0.00 in0.0 mm 0.00 in0.0 mm
05:50 PM 26.2°F-3.2°C 1.1°F-17.2°C 33% 2.2 mph W3.5 kmh W 5.8 mph9.3 kmh 30.67 in1038.6 mb 0.00 in0.0 mm 0.00 in0.0 mm 0.00 in0.0 mm
05:45 PM 26.2°F-3.2°C 1.1°F-17.2°C 33% 2.7 mph W4.3 kmh W 4.7 mph7.6 kmh 30.67 in1038.6 mb 0.00 in0.0 mm 0.00 in0.0 mm 0.00 in0.0 mm
05:40 PM 22.9°F-5.1°C -4.8°F-20.4°C 30% 2.6 mph W4.2 kmh W 6.3 mph10.1 kmh 30.66 in1038.3 mb 0.00 in0.0 mm 0.00 in0.0 mm 0.00 in0.0 mm
05:35 PM 26.2°F-3.2°C 0.7°F-17.4°C 32% 2.8 mph NW4.5 kmh NW 6.8 mph10.9 kmh 30.66 in1038.3 mb 0.00 in0.0 mm 0.00 in0.0 mm 0.00 in0.0 mm
05:30 PM 26.2°F-3.2°C 1.0°F-17.2°C 33% 3.1 mph NE5.0 kmh NE 5.3 mph8.5 kmh 30.66 in1038.3 mb 0.00 in0.0 mm 0.00 in0.0 mm 0.00 in0.0 mm
05:25 PM 26.4°F-3.1°C 1.2°F-17.1°C 33% 2.3 mph SSE3.7 kmh SSE 4.2 mph6.8 kmh 30.66 in1038.3 mb 0.00 in0.0 mm 0.00 in0.0 mm 0.00 in0.0 mm
05:20 PM 26.4°F-3.1°C 1.3°F-17.1°C 33% 1.5 mph E2.4 kmh E 2.7 mph4.3 kmh 30.66 in1038.3 mb 0.00 in0.0 mm 0.00 in0.0 mm 0.00 in0.0 mm
05:15 PM 26.7°F-2.9°C 0.9°F-17.3°C 32% 2.1 mph NE3.4 kmh NE 4.7 mph7.6 kmh 30.66 in1038.3 mb 0.00 in0.0 mm 0.00 in0.0 mm 0.00 in0.0 mm
05:10 PM 27.0°F-2.8°C 1.1°F-17.2°C 32% 2.9 mph SW4.7 kmh SW 4.7 mph7.6 kmh 30.66 in1038.3 mb 0.00 in0.0 mm 0.00 in0.0 mm 0.00 in0.0 mm
05:05 PM 27.1°F-2.7°C 1.2°F-17.1°C 32% 2.8 mph N4.5 kmh N 6.3 mph10.1 kmh 30.66 in1038.3 mb 0.00 in0.0 mm 0.00 in0.0 mm 0.00 in0.0 mm
05:00 PM 27.2°F-2.7°C 1.3°F-17.1°C 32% 3.0 mph NW4.8 kmh NW 6.3 mph10.1 kmh 30.66 in1038.3 mb 0.00 in0.0 mm 0.00 in0.0 mm 0.00 in0.0 mm
04:55 PM 27.3°F-2.6°C 1.4°F-17.0°C 32% 2.6 mph NW4.2 kmh NW 6.3 mph10.1 kmh 30.65 in1037.9 mb 0.00 in0.0 mm 0.00 in0.0 mm 0.00 in0.0 mm
04:50 PM 27.7°F-2.4°C 1.7°F-16.8°C 32% 2.5 mph NE4.0 kmh NE 6.8 mph10.9 kmh 30.65 in1037.9 mb 0.00 in0.0 mm 0.00 in0.0 mm 0.00 in0.0 mm
04:45 PM 27.9°F-2.3°C 1.9°F-16.7°C 32% 2.2 mph W3.5 kmh W 3.7 mph6.0 kmh 30.65 in1037.9 mb 0.00 in0.0 mm 0.00 in0.0 mm 0.00 in0.0 mm
04:40 PM 28.0°F-2.2°C 2.0°F-16.7°C 32% 3.6 mph WNW5.8 kmh WNW 7.3 mph11.7 kmh 30.65 in1037.9 mb 0.00 in0.0 mm 0.00 in0.0 mm 0.00 in0.0 mm
04:35 PM 28.3°F-2.1°C 2.3°F-16.5°C 32% 1.9 mph SW3.1 kmh SW 4.2 mph6.8 kmh 30.65 in1037.9 mb 0.00 in0.0 mm 0.00 in0.0 mm 0.00 in0.0 mm
04:30 PM 28.4°F-2.0°C 1.8°F-16.8°C 31% 2.6 mph N4.2 kmh N 5.3 mph8.5 kmh 30.64 in1037.6 mb 0.00 in0.0 mm 0.00 in0.0 mm 0.00 in0.0 mm
04:25 PM 28.5°F-1.9°C 1.2°F-17.1°C 30% 3.3 mph N5.3 kmh N 5.3 mph8.5 kmh 30.64 in1037.6 mb 0.00 in0.0 mm 0.00 in0.0 mm 0.00 in0.0 mm
04:20 PM 28.8°F-1.8°C 1.3°F-17.1°C 30% 4.0 mph SE6.4 kmh SE 7.8 mph12.6 kmh 30.64 in1037.6 mb 0.00 in0.0 mm 0.00 in0.0 mm 0.00 in0.0 mm
04:15 PM 28.8°F-1.8°C 0.6°F-17.4°C 29% 4.4 mph ESE7.1 kmh ESE 10.4 mph16.7 kmh 30.64 in1037.6 mb 0.00 in0.0 mm 0.00 in0.0 mm 0.00 in0.0 mm
04:10 PM 28.8°F-1.8°C 0.6°F-17.4°C 29% 3.6 mph SSE5.8 kmh SSE 6.3 mph10.1 kmh 30.64 in1037.6 mb 0.00 in0.0 mm 0.00 in0.0 mm 0.00 in0.0 mm
04:05 PM 28.3°F-2.1°C -2.5°F-19.2°C 27% 5.3 mph ESE8.5 kmh ESE 9.4 mph15.1 kmh 30.65 in1037.9 mb 0.00 in0.0 mm 0.00 in0.0 mm 0.00 in0.0 mm
04:00 PM 29.1°F-1.6°C 0.1°F-17.7°C 28% 4.7 mph E7.6 kmh E 7.3 mph11.7 kmh 30.65 in1037.9 mb 0.00 in0.0 mm 0.00 in0.0 mm 0.00 in0.0 mm
03:55 PM 29.2°F-1.6°C 0.5°F-17.5°C 28% 5.1 mph NE8.2 kmh NE 7.3 mph11.7 kmh 30.64 in1037.6 mb 0.00 in0.0 mm 0.00 in0.0 mm 0.00 in0.0 mm
03:50 PM 29.4°F-1.4°C 1.1°F-17.2°C 29% 6.6 mph N10.6 kmh N 9.9 mph15.9 kmh 30.64 in1037.6 mb 0.00 in0.0 mm 0.00 in0.0 mm 0.00 in0.0 mm
03:45 PM 29.7°F-1.3°C 1.4°F-17.0°C 29% 4.7 mph SE7.6 kmh SE 10.4 mph16.7 kmh 30.64 in1037.6 mb 0.00 in0.0 mm 0.00 in0.0 mm 0.00 in0.0 mm
03:40 PM 29.7°F-1.3°C 1.4°F-17.0°C 29% 4.5 mph E7.2 kmh E 9.9 mph15.9 kmh 30.64 in1037.6 mb 0.00 in0.0 mm 0.00 in0.0 mm 0.00 in0.0 mm
03:35 PM 29.8°F-1.2°C 1.5°F-16.9°C 29% 4.5 mph WSW7.2 kmh WSW 9.9 mph15.9 kmh 30.64 in1037.6 mb 0.00 in0.0 mm 0.00 in0.0 mm 0.00 in0.0 mm
03:30 PM 29.8°F-1.2°C 1.5°F-16.9°C 29% 5.1 mph NW8.2 kmh NW 8.3 mph13.4 kmh 30.64 in1037.6 mb 0.00 in0.0 mm 0.00 in0.0 mm 0.00 in0.0 mm
03:25 PM 29.8°F-1.2°C 1.5°F-16.9°C 29% 5.2 mph SW8.4 kmh SW 9.9 mph15.9 kmh 30.64 in1037.6 mb 0.00 in0.0 mm 0.00 in0.0 mm 0.00 in0.0 mm
03:20 PM 30.1°F-1.1°C 1.8°F-16.8°C 29% 5.6 mph W9.0 kmh W 8.3 mph13.4 kmh 30.63 in1037.3 mb 0.00 in0.0 mm 0.00 in0.0 mm 0.00 in0.0 mm
03:15 PM 30.2°F-1.0°C 1.8°F-16.8°C 29% 5.0 mph SW8.0 kmh SW 8.3 mph13.4 kmh 30.63 in1037.3 mb 0.00 in0.0 mm 0.00 in0.0 mm 0.00 in0.0 mm
03:10 PM 30.6°F-0.8°C 2.2°F-16.6°C 29% 5.1 mph NW8.2 kmh NW 8.3 mph13.4 kmh 30.63 in1037.3 mb 0.00 in0.0 mm 0.00 in0.0 mm 0.00 in0.0 mm
03:05 PM 30.7°F-0.7°C 2.3°F-16.5°C 29% 3.5 mph SSE5.6 kmh SSE 5.3 mph8.5 kmh 30.63 in1037.3 mb 0.00 in0.0 mm 0.00 in0.0 mm 0.00 in0.0 mm
03:00 PM 30.7°F-0.7°C 2.5°F-16.4°C 29% 3.8 mph SW6.1 kmh SW 7.3 mph11.7 kmh 30.63 in1037.3 mb 0.00 in0.0 mm 0.00 in0.0 mm 0.00 in0.0 mm
02:55 PM 29.8°F-1.2°C -0.2°F-17.9°C 28% 4.2 mph NE6.8 kmh NE 8.3 mph13.4 kmh 30.63 in1037.3 mb 0.00 in0.0 mm 0.00 in0.0 mm 0.00 in0.0 mm
02:50 PM 30.1°F-1.1°C 2.5°F-16.4°C 30% 4.3 mph NNW6.9 kmh NNW 7.8 mph12.6 kmh 30.63 in1037.3 mb 0.00 in0.0 mm 0.00 in0.0 mm 0.00 in0.0 mm
02:45 PM 30.0°F-1.1°C 2.3°F-16.5°C 30% 4.6 mph W7.4 kmh W 8.3 mph13.4 kmh 30.63 in1037.3 mb 0.00 in0.0 mm 0.00 in0.0 mm 0.00 in0.0 mm
02:40 PM 30.1°F-1.1°C 2.2°F-16.6°C 30% 5.4 mph NW8.7 kmh NW 10.4 mph16.7 kmh 30.63 in1037.3 mb 0.00 in0.0 mm 0.00 in0.0 mm 0.00 in0.0 mm
02:35 PM 30.0°F-1.1°C 1.6°F-16.9°C 29% 3.7 mph NW6.0 kmh NW 5.8 mph9.3 kmh 30.63 in1037.3 mb 0.00 in0.0 mm 0.00 in0.0 mm 0.00 in0.0 mm
02:30 PM 30.0°F-1.1°C 1.6°F-16.9°C 29% 5.3 mph S8.5 kmh S 8.3 mph13.4 kmh 30.62 in1036.9 mb 0.00 in0.0 mm 0.00 in0.0 mm 0.00 in0.0 mm
02:25 PM 30.4°F-0.9°C 2.0°F-16.7°C 29% 4.9 mph S7.9 kmh S 8.3 mph13.4 kmh 30.62 in1036.9 mb 0.00 in0.0 mm 0.00 in0.0 mm 0.00 in0.0 mm
02:20 PM 30.4°F-0.9°C 1.4°F-17.0°C 28% 4.2 mph E6.8 kmh E 6.3 mph10.1 kmh 30.63 in1037.3 mb 0.00 in0.0 mm 0.00 in0.0 mm 0.00 in0.0 mm
02:15 PM 30.5°F-0.8°C 2.3°F-16.5°C 29% 4.6 mph W7.4 kmh W 7.8 mph12.6 kmh 30.63 in1037.3 mb 0.00 in0.0 mm 0.00 in0.0 mm 0.00 in0.0 mm
02:10 PM 30.6°F-0.8°C 1.7°F-16.8°C 28% 4.8 mph SE7.7 kmh SE 8.3 mph13.4 kmh 30.63 in1037.3 mb 0.00 in0.0 mm 0.00 in0.0 mm 0.00 in0.0 mm
02:05 PM 30.2°F-1.0°C 1.5°F-16.9°C 28% 5.0 mph SW8.0 kmh SW 7.3 mph11.7 kmh 30.63 in1037.3 mb 0.00 in0.0 mm 0.00 in0.0 mm 0.00 in0.0 mm
02:00 PM 30.1°F-1.1°C 2.4°F-16.4°C 30% 4.5 mph S7.2 kmh S 7.8 mph12.6 kmh 30.63 in1037.3 mb 0.00 in0.0 mm 0.00 in0.0 mm 0.00 in0.0 mm
01:55 PM 30.0°F-1.1°C 2.4°F-16.4°C 30% 4.8 mph WNW7.7 kmh WNW 8.9 mph14.3 kmh 30.62 in1036.9 mb 0.00 in0.0 mm 0.00 in0.0 mm 0.00 in0.0 mm
01:50 PM 29.8°F-1.2°C 2.7°F-16.3°C 31% 5.0 mph WNW8.0 kmh WNW 8.9 mph14.3 kmh 30.62 in1036.9 mb 0.00 in0.0 mm 0.00 in0.0 mm 0.00 in0.0 mm
01:45 PM 29.7°F-1.3°C 2.8°F-16.2°C 31% 5.0 mph W8.0 kmh W 7.3 mph11.7 kmh 30.62 in1036.9 mb 0.00 in0.0 mm 0.00 in0.0 mm 0.00 in0.0 mm
01:40 PM 29.7°F-1.3°C 2.8°F-16.2°C 31% 5.3 mph SE8.5 kmh SE 8.3 mph13.4 kmh 30.62 in1036.9 mb 0.00 in0.0 mm 0.00 in0.0 mm 0.00 in0.0 mm
01:35 PM 29.8°F-1.2°C 2.7°F-16.3°C 31% 6.4 mph NNW10.3 kmh NNW 11.9 mph19.2 kmh 30.62 in1036.9 mb 0.00 in0.0 mm 0.00 in0.0 mm 0.00 in0.0 mm
01:30 PM 29.9°F-1.2°C 3.1°F-16.1°C 31% 5.1 mph S8.2 kmh S 13.0 mph20.9 kmh 30.63 in1037.3 mb 0.00 in0.0 mm 0.00 in0.0 mm 0.00 in0.0 mm
01:25 PM 29.7°F-1.3°C 3.5°F-15.8°C 32% 5.0 mph WSW8.0 kmh WSW 7.3 mph11.7 kmh 30.63 in1037.3 mb 0.00 in0.0 mm 0.00 in0.0 mm 0.00 in0.0 mm
01:20 PM 29.8°F-1.2°C 3.6°F-15.8°C 32% 6.3 mph WNW10.1 kmh WNW 10.4 mph16.7 kmh 30.63 in1037.3 mb 0.00 in0.0 mm 0.00 in0.0 mm 0.00 in0.0 mm
01:15 PM 29.6°F-1.3°C 3.0°F-16.1°C 32% 4.9 mph WSW7.9 kmh WSW 7.3 mph11.7 kmh 30.62 in1036.9 mb 0.00 in0.0 mm 0.00 in0.0 mm 0.00 in0.0 mm
01:10 PM 28.9°F-1.7°C 2.1°F-16.6°C 31% 6.2 mph NNW10.0 kmh NNW 11.4 mph18.3 kmh 30.62 in1036.9 mb 0.00 in0.0 mm 0.00 in0.0 mm 0.00 in0.0 mm
01:05 PM 29.1°F-1.6°C 3.0°F-16.1°C 32% 6.2 mph SSW10.0 kmh SSW 10.4 mph16.7 kmh 30.63 in1037.3 mb 0.00 in0.0 mm 0.00 in0.0 mm 0.00 in0.0 mm
01:00 PM 29.1°F-1.6°C 3.0°F-16.1°C 32% 4.8 mph NE7.7 kmh NE 6.3 mph10.1 kmh 30.63 in1037.3 mb 0.00 in0.0 mm 0.00 in0.0 mm 0.00 in0.0 mm
12:55 PM 28.4°F-2.0°C 1.9°F-16.7°C 31% 5.4 mph WNW8.7 kmh WNW 7.8 mph12.6 kmh 30.63 in1037.3 mb 0.00 in0.0 mm 0.00 in0.0 mm 0.00 in0.0 mm
12:50 PM 28.4°F-2.0°C 1.7°F-16.8°C 31% 6.6 mph NE10.6 kmh NE 10.4 mph16.7 kmh 30.63 in1037.3 mb 0.00 in0.0 mm 0.00 in0.0 mm 0.00 in0.0 mm
12:45 PM 28.4°F-2.0°C 2.3°F-16.5°C 32% 7.0 mph SE11.3 kmh SE 11.9 mph19.2 kmh 30.63 in1037.3 mb 0.00 in0.0 mm 0.00 in0.0 mm 0.00 in0.0 mm
12:40 PM 28.3°F-2.1°C 3.3°F-15.9°C 34% 5.1 mph N8.2 kmh N 9.4 mph15.1 kmh 30.63 in1037.3 mb 0.00 in0.0 mm 0.00 in0.0 mm 0.00 in0.0 mm
12:35 PM 28.1°F-2.2°C 2.7°F-16.3°C 33% 5.6 mph NE9.0 kmh NE 8.9 mph14.3 kmh 30.63 in1037.3 mb 0.00 in0.0 mm 0.00 in0.0 mm 0.00 in0.0 mm
12:30 PM 27.9°F-2.3°C 3.1°F-16.1°C 34% 4.4 mph SE7.1 kmh SE 7.3 mph11.7 kmh 30.64 in1037.6 mb 0.00 in0.0 mm 0.00 in0.0 mm 0.00 in0.0 mm
12:25 PM 27.5°F-2.5°C 2.9°F-16.2°C 34% 4.9 mph N7.9 kmh N 8.3 mph13.4 kmh 30.64 in1037.6 mb 0.00 in0.0 mm 0.00 in0.0 mm 0.00 in0.0 mm
12:20 PM 27.4°F-2.6°C 3.0°F-16.1°C 34% 6.3 mph SW10.1 kmh SW 9.4 mph15.1 kmh 30.64 in1037.6 mb 0.00 in0.0 mm 0.00 in0.0 mm 0.00 in0.0 mm
12:15 PM 27.5°F-2.5°C 3.5°F-15.8°C 35% 6.2 mph W10.0 kmh W 10.4 mph16.7 kmh 30.64 in1037.6 mb 0.00 in0.0 mm 0.00 in0.0 mm 0.00 in0.0 mm
12:10 PM 27.1°F-2.7°C 3.8°F-15.7°C 36% 5.5 mph WSW8.9 kmh WSW 11.4 mph18.3 kmh 30.64 in1037.6 mb 0.00 in0.0 mm 0.00 in0.0 mm 0.00 in0.0 mm
12:05 PM 27.0°F-2.8°C 3.9°F-15.6°C 36% 6.1 mph W9.8 kmh W 10.9 mph17.5 kmh 30.64 in1037.6 mb 0.00 in0.0 mm 0.00 in0.0 mm 0.00 in0.0 mm
12:00 PM 27.1°F-2.7°C 4.3°F-15.4°C 37% 5.6 mph WSW9.0 kmh WSW 7.8 mph12.6 kmh 30.64 in1037.6 mb 0.00 in0.0 mm 0.00 in0.0 mm 0.00 in0.0 mm
11:55 AM 26.7°F-2.9°C 3.9°F-15.6°C 37% 5.0 mph WSW8.0 kmh WSW 9.4 mph15.1 kmh 30.64 in1037.6 mb 0.00 in0.0 mm 0.00 in0.0 mm 0.00 in0.0 mm
11:50 AM 26.4°F-3.1°C 3.7°F-15.7°C 37% 5.8 mph NE9.3 kmh NE 10.9 mph17.5 kmh 30.64 in1037.6 mb 0.00 in0.0 mm 0.00 in0.0 mm 0.00 in0.0 mm
11:45 AM 25.9°F-3.4°C 3.3°F-15.9°C 37% 7.0 mph SW11.3 kmh SW 12.5 mph20.1 kmh 30.64 in1037.6 mb 0.00 in0.0 mm 0.00 in0.0 mm 0.00 in0.0 mm
11:40 AM 26.1°F-3.3°C 3.4°F-15.9°C 37% 6.5 mph WSW10.5 kmh WSW 13.5 mph21.7 kmh 30.63 in1037.3 mb 0.00 in0.0 mm 0.00 in0.0 mm 0.00 in0.0 mm
11:35 AM 26.0°F-3.3°C 0.6°F-17.4°C 34% 7.7 mph S12.4 kmh S 13.0 mph20.9 kmh 30.63 in1037.3 mb 0.00 in0.0 mm 0.00 in0.0 mm 0.00 in0.0 mm
11:30 AM 26.2°F-3.2°C 4.1°F-15.5°C 38% 5.2 mph WNW8.4 kmh WNW 7.8 mph12.6 kmh 30.64 in1037.6 mb 0.00 in0.0 mm 0.00 in0.0 mm 0.00 in0.0 mm
11:25 AM 25.6°F-3.6°C 3.1°F-16.1°C 37% 7.1 mph NW11.4 kmh NW 10.4 mph16.7 kmh 30.64 in1037.6 mb 0.00 in0.0 mm 0.00 in0.0 mm 0.00 in0.0 mm
11:20 AM 25.8°F-3.4°C 3.2°F-16.0°C 37% 6.8 mph WSW10.9 kmh WSW 11.9 mph19.2 kmh 30.65 in1037.9 mb 0.00 in0.0 mm 0.00 in0.0 mm 0.00 in0.0 mm
11:15 AM 25.9°F-3.4°C 3.4°F-15.9°C 37% 5.4 mph WSW8.7 kmh WSW 8.3 mph13.4 kmh 30.65 in1037.9 mb 0.00 in0.0 mm 0.00 in0.0 mm 0.00 in0.0 mm
11:10 AM 25.5°F-3.6°C 3.5°F-15.8°C 38% 5.4 mph W8.7 kmh W 8.9 mph14.3 kmh 30.65 in1037.9 mb 0.00 in0.0 mm 0.00 in0.0 mm 0.00 in0.0 mm
11:05 AM 25.3°F-3.7°C 3.5°F-15.8°C 38% 5.8 mph W9.3 kmh W 9.4 mph15.1 kmh 30.65 in1037.9 mb 0.00 in0.0 mm 0.00 in0.0 mm 0.00 in0.0 mm
11:00 AM 25.2°F-3.8°C 3.8°F-15.7°C 39% 7.2 mph E11.6 kmh E 13.0 mph20.9 kmh 30.65 in1037.9 mb 0.00 in0.0 mm 0.00 in0.0 mm 0.00 in0.0 mm
10:55 AM 25.0°F-3.9°C 3.6°F-15.8°C 39% 7.6 mph SW12.2 kmh SW 12.5 mph20.1 kmh 30.64 in1037.6 mb 0.00 in0.0 mm 0.00 in0.0 mm 0.00 in0.0 mm
10:50 AM 25.0°F-3.9°C 3.6°F-15.8°C 39% 6.9 mph W11.1 kmh W 9.9 mph15.9 kmh 30.64 in1037.6 mb 0.00 in0.0 mm 0.00 in0.0 mm 0.00 in0.0 mm
10:45 AM 25.1°F-3.8°C 3.6°F-15.8°C 39% 5.9 mph NW9.5 kmh NW 9.9 mph15.9 kmh 30.64 in1037.6 mb 0.00 in0.0 mm 0.00 in0.0 mm 0.00 in0.0 mm
10:40 AM 24.7°F-4.1°C 3.3°F-15.9°C 39% 7.0 mph S11.3 kmh S 11.4 mph18.3 kmh 30.64 in1037.6 mb 0.00 in0.0 mm 0.00 in0.0 mm 0.00 in0.0 mm
10:35 AM 24.7°F-4.1°C 3.3°F-15.9°C 39% 6.8 mph SW10.9 kmh SW 10.9 mph17.5 kmh 30.64 in1037.6 mb 0.00 in0.0 mm 0.00 in0.0 mm 0.00 in0.0 mm
10:30 AM 24.6°F-4.1°C 3.2°F-16.0°C 39% 6.9 mph NW11.1 kmh NW 10.4 mph16.7 kmh 30.64 in1037.6 mb 0.00 in0.0 mm 0.00 in0.0 mm 0.00 in0.0 mm
10:25 AM 24.4°F-4.2°C 3.0°F-16.1°C 39% 7.2 mph SW11.6 kmh SW 14.5 mph23.3 kmh 30.64 in1037.6 mb 0.00 in0.0 mm 0.00 in0.0 mm 0.00 in0.0 mm
10:20 AM 24.5°F-4.2°C 3.3°F-15.9°C 39% 7.0 mph N11.3 kmh N 12.5 mph20.1 kmh 30.63 in1037.3 mb 0.00 in0.0 mm 0.00 in0.0 mm 0.00 in0.0 mm
10:15 AM 24.4°F-4.2°C 4.0°F-15.6°C 41% 6.9 mph WNW11.1 kmh WNW 10.9 mph17.5 kmh 30.63 in1037.3 mb 0.00 in0.0 mm 0.00 in0.0 mm 0.00 in0.0 mm
10:10 AM 24.5°F-4.2°C 4.7°F-15.2°C 42% 5.9 mph NNE9.5 kmh NNE 9.9 mph15.9 kmh 30.63 in1037.3 mb 0.00 in0.0 mm 0.00 in0.0 mm 0.00 in0.0 mm
10:05 AM 24.2°F-4.3°C 4.4°F-15.3°C 42% 6.0 mph WSW9.7 kmh WSW 11.4 mph18.3 kmh 30.62 in1036.9 mb 0.00 in0.0 mm 0.00 in0.0 mm 0.00 in0.0 mm
10:00 AM 24.0°F-4.4°C 4.4°F-15.3°C 42% 6.2 mph NNW10.0 kmh NNW 13.0 mph20.9 kmh 30.62 in1036.9 mb 0.00 in0.0 mm 0.00 in0.0 mm 0.00 in0.0 mm
09:55 AM 23.7°F-4.6°C 4.5°F-15.3°C 43% 7.9 mph W12.7 kmh W 11.4 mph18.3 kmh 30.62 in1036.9 mb 0.00 in0.0 mm 0.00 in0.0 mm 0.00 in0.0 mm
09:50 AM 24.0°F-4.4°C 5.0°F-15.0°C 43% 8.6 mph NW13.8 kmh NW 18.6 mph29.9 kmh 30.62 in1036.9 mb 0.00 in0.0 mm 0.00 in0.0 mm 0.00 in0.0 mm
09:45 AM 23.7°F-4.6°C 5.1°F-14.9°C 44% 6.1 mph W9.8 kmh W 13.0 mph20.9 kmh 30.62 in1036.9 mb 0.00 in0.0 mm 0.00 in0.0 mm 0.00 in0.0 mm
09:40 AM 23.3°F-4.8°C 5.2°F-14.9°C 45% 6.6 mph W10.6 kmh W 10.4 mph16.7 kmh 30.62 in1036.9 mb 0.00 in0.0 mm 0.00 in0.0 mm 0.00 in0.0 mm
09:35 AM 23.0°F-5.0°C 4.8°F-15.1°C 45% 7.4 mph NW11.9 kmh NW 14.5 mph23.3 kmh 30.62 in1036.9 mb 0.00 in0.0 mm 0.00 in0.0 mm 0.00 in0.0 mm
09:30 AM 22.8°F-5.1°C 4.7°F-15.2°C 45% 7.1 mph WSW11.4 kmh WSW 10.4 mph16.7 kmh 30.61 in1036.6 mb 0.00 in0.0 mm 0.00 in0.0 mm 0.00 in0.0 mm
09:25 AM 22.8°F-5.1°C 4.7°F-15.2°C 45% 7.4 mph NW11.9 kmh NW 13.0 mph20.9 kmh 30.61 in1036.6 mb 0.00 in0.0 mm 0.00 in0.0 mm 0.00 in0.0 mm
09:20 AM 22.9°F-5.1°C 4.9°F-15.1°C 45% 9.1 mph NW14.6 kmh NW 14.5 mph23.3 kmh 30.61 in1036.6 mb 0.00 in0.0 mm 0.00 in0.0 mm 0.00 in0.0 mm
09:15 AM 22.8°F-5.1°C 5.2°F-14.9°C 46% 6.7 mph WSW10.8 kmh WSW 12.5 mph20.1 kmh 30.61 in1036.6 mb 0.00 in0.0 mm 0.00 in0.0 mm 0.00 in0.0 mm
09:10 AM 22.8°F-5.1°C 5.2°F-14.9°C 46% 7.1 mph WSW11.4 kmh WSW 13.0 mph20.9 kmh 30.61 in1036.6 mb 0.00 in0.0 mm 0.00 in0.0 mm 0.00 in0.0 mm
09:05 AM 22.8°F-5.1°C 5.2°F-14.9°C 46% 8.3 mph WNW13.4 kmh WNW 11.9 mph19.2 kmh 30.59 in1035.9 mb 0.00 in0.0 mm 0.00 in0.0 mm 0.00 in0.0 mm
09:00 AM 23.0°F-5.0°C 5.5°F-14.7°C 46% 6.4 mph 10.3 kmh 9.4 mph15.1 kmh 30.59 in1035.9 mb 0.00 in0.0 mm 0.00 in0.0 mm 0.00 in0.0 mm
08:55 AM 23.0°F-5.0°C 5.6°F-14.7°C 47% 5.9 mph N9.5 kmh N 10.9 mph17.5 kmh 30.58 in1035.6 mb 0.00 in0.0 mm 0.00 in0.0 mm 0.00 in0.0 mm
08:50 AM 23.2°F-4.9°C 5.8°F-14.6°C 47% 7.1 mph NE11.4 kmh NE 14.0 mph22.5 kmh 30.58 in1035.6 mb 0.00 in0.0 mm 0.00 in0.0 mm 0.00 in0.0 mm
08:45 AM 23.0°F-5.0°C 5.5°F-14.7°C 46% 7.0 mph SW11.3 kmh SW 13.5 mph21.7 kmh 30.58 in1035.6 mb 0.00 in0.0 mm 0.00 in0.0 mm 0.00 in0.0 mm
08:40 AM 22.9°F-5.1°C 5.7°F-14.6°C 47% 6.3 mph WNW10.1 kmh WNW 10.9 mph17.5 kmh 30.58 in1035.6 mb 0.00 in0.0 mm 0.00 in0.0 mm 0.00 in0.0 mm
08:35 AM 22.8°F-5.1°C 5.6°F-14.7°C 47% 5.5 mph NW8.9 kmh NW 8.3 mph13.4 kmh 30.58 in1035.6 mb 0.00 in0.0 mm 0.00 in0.0 mm 0.00 in0.0 mm
08:30 AM 22.6°F-5.2°C 5.1°F-14.9°C 46% 6.3 mph WSW10.1 kmh WSW 13.5 mph21.7 kmh 30.56 in1034.9 mb 0.00 in0.0 mm 0.00 in0.0 mm 0.00 in0.0 mm
08:25 AM 22.8°F-5.1°C 5.9°F-14.5°C 48% 6.4 mph W10.3 kmh W 9.9 mph15.9 kmh 30.56 in1034.9 mb 0.00 in0.0 mm 0.00 in0.0 mm 0.00 in0.0 mm
08:20 AM 22.7°F-5.2°C 6.0°F-14.4°C 48% 5.4 mph W8.7 kmh W 9.9 mph15.9 kmh 30.56 in1034.9 mb 0.00 in0.0 mm 0.00 in0.0 mm 0.00 in0.0 mm
08:15 AM 22.7°F-5.2°C 5.9°F-14.5°C 48% 5.4 mph W8.7 kmh W 10.4 mph16.7 kmh 30.55 in1034.5 mb 0.00 in0.0 mm 0.00 in0.0 mm 0.00 in0.0 mm
08:10 AM 22.6°F-5.2°C 5.8°F-14.6°C 48% 7.1 mph NNE11.4 kmh NNE 11.4 mph18.3 kmh 30.55 in1034.5 mb 0.00 in0.0 mm 0.00 in0.0 mm 0.00 in0.0 mm
08:05 AM 22.5°F-5.3°C 5.8°F-14.6°C 48% 7.2 mph W11.6 kmh W 10.9 mph17.5 kmh 30.54 in1034.2 mb 0.00 in0.0 mm 0.00 in0.0 mm 0.00 in0.0 mm
08:00 AM 22.3°F-5.4°C 5.6°F-14.7°C 48% 8.2 mph N13.2 kmh N 11.4 mph18.3 kmh 30.54 in1034.2 mb 0.00 in0.0 mm 0.00 in0.0 mm 0.00 in0.0 mm
07:55 AM 22.3°F-5.4°C 5.8°F-14.6°C 48% 7.8 mph W12.6 kmh W 13.5 mph21.7 kmh 30.54 in1034.2 mb 0.00 in0.0 mm 0.00 in0.0 mm 0.00 in0.0 mm
07:50 AM 22.3°F-5.4°C 6.1°F-14.4°C 49% 8.1 mph NW13.0 kmh NW 13.0 mph20.9 kmh 30.54 in1034.2 mb 0.00 in0.0 mm 0.00 in0.0 mm 0.00 in0.0 mm
07:45 AM 22.3°F-5.4°C 6.1°F-14.4°C 49% 6.8 mph N10.9 kmh N 11.9 mph19.2 kmh 30.54 in1034.2 mb 0.00 in0.0 mm 0.00 in0.0 mm 0.00 in0.0 mm
07:40 AM 22.5°F-5.3°C 6.4°F-14.2°C 49% 6.4 mph NW10.3 kmh NW 13.5 mph21.7 kmh 30.53 in1033.9 mb 0.00 in0.0 mm 0.00 in0.0 mm 0.00 in0.0 mm
07:35 AM 22.6°F-5.2°C 6.3°F-14.3°C 49% 4.6 mph N7.4 kmh N 8.3 mph13.4 kmh 30.53 in1033.9 mb 0.00 in0.0 mm 0.00 in0.0 mm 0.00 in0.0 mm
07:30 AM 22.6°F-5.2°C 6.1°F-14.4°C 48% 5.2 mph WSW8.4 kmh WSW 10.4 mph16.7 kmh 30.52 in1033.5 mb 0.00 in0.0 mm 0.00 in0.0 mm 0.00 in0.0 mm
07:25 AM 22.6°F-5.2°C 5.9°F-14.5°C 48% 6.2 mph WSW10.0 kmh WSW 9.9 mph15.9 kmh 30.52 in1033.5 mb 0.00 in0.0 mm 0.00 in0.0 mm 0.00 in0.0 mm
07:20 AM 22.6°F-5.2°C 5.9°F-14.5°C 48% 6.4 mph SW10.3 kmh SW 12.5 mph20.1 kmh 30.52 in1033.5 mb 0.00 in0.0 mm 0.00 in0.0 mm 0.00 in0.0 mm
07:15 AM -- -- - - N N -- -- 0.00 in0.0 mm 0.00 in0.0 mm 0.00 in0.0 mm
07:10 AM 23.0°F-5.0°C 6.3°F-14.3°C 48% 8.7 mph W14.0 kmh W 10.9 mph17.5 kmh 30.51 in1033.2 mb 0.00 in0.0 mm 0.00 in0.0 mm 0.00 in0.0 mm
07:05 AM 23.0°F-5.0°C 6.2°F-14.3°C 48% 6.8 mph W10.9 kmh W 12.5 mph20.1 kmh 30.51 in1033.2 mb 0.00 in0.0 mm 0.00 in0.0 mm 0.00 in0.0 mm
07:00 AM 23.2°F-4.9°C 6.0°F-14.4°C 47% 5.9 mph S9.5 kmh S 7.3 mph11.7 kmh 30.51 in1033.2 mb 0.00 in0.0 mm 0.00 in0.0 mm 0.00 in0.0 mm
06:55 AM 23.4°F-4.8°C 6.2°F-14.3°C 47% 6.9 mph WSW11.1 kmh WSW 11.4 mph18.3 kmh 30.51 in1033.2 mb 0.00 in0.0 mm 0.00 in0.0 mm 0.00 in0.0 mm
06:50 AM 23.5°F-4.7°C 6.2°F-14.3°C 47% 6.2 mph NW10.0 kmh NW 13.5 mph21.7 kmh 30.50 in1032.8 mb 0.00 in0.0 mm 0.00 in0.0 mm 0.00 in0.0 mm
06:45 AM 23.5°F-4.7°C 6.6°F-14.1°C 48% 7.9 mph WNW12.7 kmh WNW 14.0 mph22.5 kmh 30.50 in1032.8 mb 0.00 in0.0 mm 0.00 in0.0 mm 0.00 in0.0 mm
06:40 AM 23.7°F-4.6°C 6.7°F-14.1°C 48% 4.7 mph W7.6 kmh W 7.8 mph12.6 kmh 30.49 in1032.5 mb 0.00 in0.0 mm 0.00 in0.0 mm 0.00 in0.0 mm
06:35 AM 23.9°F-4.5°C 6.7°F-14.1°C 47% 7.7 mph NW12.4 kmh NW 13.5 mph21.7 kmh 30.49 in1032.5 mb 0.00 in0.0 mm 0.00 in0.0 mm 0.00 in0.0 mm
06:30 AM 24.1°F-4.4°C 6.8°F-14.0°C 47% 5.7 mph W9.2 kmh W 9.9 mph15.9 kmh 30.49 in1032.5 mb 0.00 in0.0 mm 0.00 in0.0 mm 0.00 in0.0 mm
06:25 AM 24.2°F-4.3°C 6.9°F-13.9°C 47% 6.9 mph WNW11.1 kmh WNW 13.5 mph21.7 kmh 30.49 in1032.5 mb 0.00 in0.0 mm 0.00 in0.0 mm 0.00 in0.0 mm
06:20 AM 24.4°F-4.2°C 7.1°F-13.8°C 47% 7.1 mph WNW11.4 kmh WNW 11.9 mph19.2 kmh 30.47 in1031.8 mb 0.00 in0.0 mm 0.00 in0.0 mm 0.00 in0.0 mm
06:15 AM 24.4°F-4.2°C 7.2°F-13.8°C 47% 8.1 mph NNW13.0 kmh NNW 13.5 mph21.7 kmh 30.47 in1031.8 mb 0.00 in0.0 mm 0.00 in0.0 mm 0.00 in0.0 mm
06:10 AM 24.6°F-4.1°C 7.8°F-13.4°C 48% 7.2 mph ESE11.6 kmh ESE 11.4 mph18.3 kmh 30.47 in1031.8 mb 0.00 in0.0 mm 0.00 in0.0 mm 0.00 in0.0 mm
06:05 AM 24.8°F-4.0°C 7.9°F-13.4°C 48% 6.0 mph W9.7 kmh W 12.5 mph20.1 kmh 30.46 in1031.5 mb 0.00 in0.0 mm 0.00 in0.0 mm 0.00 in0.0 mm
06:00 AM 24.9°F-3.9°C 8.5°F-13.1°C 49% 5.5 mph W8.9 kmh W 10.4 mph16.7 kmh 30.46 in1031.5 mb 0.00 in0.0 mm 0.00 in0.0 mm 0.00 in0.0 mm
05:55 AM 25.1°F-3.8°C 8.7°F-12.9°C 49% 6.2 mph WSW10.0 kmh WSW 10.9 mph17.5 kmh 30.45 in1031.2 mb 0.00 in0.0 mm 0.00 in0.0 mm 0.00 in0.0 mm
05:50 AM 25.3°F-3.7°C 8.8°F-12.9°C 49% 6.6 mph SSW10.6 kmh SSW 14.5 mph23.3 kmh 30.44 in1030.8 mb 0.00 in0.0 mm 0.00 in0.0 mm 0.00 in0.0 mm
05:45 AM 25.4°F-3.7°C 8.9°F-12.8°C 49% 4.3 mph NW6.9 kmh NW 8.9 mph14.3 kmh 30.44 in1030.8 mb 0.00 in0.0 mm 0.00 in0.0 mm 0.00 in0.0 mm
05:40 AM 25.5°F-3.6°C 9.3°F-12.6°C 50% 6.9 mph W11.1 kmh W 10.4 mph16.7 kmh 30.43 in1030.5 mb 0.00 in0.0 mm 0.00 in0.0 mm 0.00 in0.0 mm
05:35 AM 25.6°F-3.6°C 9.6°F-12.4°C 50% 5.7 mph W9.2 kmh W 9.9 mph15.9 kmh 30.43 in1030.5 mb 0.00 in0.0 mm 0.00 in0.0 mm 0.00 in0.0 mm
05:30 AM 25.7°F-3.5°C 9.7°F-12.4°C 50% 6.1 mph W9.8 kmh W 10.4 mph16.7 kmh 30.42 in1030.1 mb 0.00 in0.0 mm 0.00 in0.0 mm 0.00 in0.0 mm
05:25 AM 25.9°F-3.4°C 9.5°F-12.5°C 49% 3.8 mph WNW6.1 kmh WNW 7.3 mph11.7 kmh 30.42 in1030.1 mb 0.00 in0.0 mm 0.00 in0.0 mm 0.00 in0.0 mm
05:20 AM 26.1°F-3.3°C 9.6°F-12.4°C 49% 5.7 mph WSW9.2 kmh WSW 11.9 mph19.2 kmh 30.41 in1029.8 mb 0.00 in0.0 mm 0.00 in0.0 mm 0.00 in0.0 mm
05:15 AM 26.2°F-3.2°C 9.7°F-12.4°C 49% 5.6 mph WSW9.0 kmh WSW 8.3 mph13.4 kmh 30.41 in1029.8 mb 0.00 in0.0 mm 0.00 in0.0 mm 0.00 in0.0 mm
05:10 AM 26.4°F-3.1°C 9.9°F-12.3°C 49% 7.9 mph N12.7 kmh N 11.9 mph19.2 kmh 30.41 in1029.8 mb 0.00 in0.0 mm 0.00 in0.0 mm 0.00 in0.0 mm
05:05 AM 26.6°F-3.0°C 10.0°F-12.2°C 49% 6.5 mph WSW10.5 kmh WSW 10.9 mph17.5 kmh 30.39 in1029.1 mb 0.00 in0.0 mm 0.00 in0.0 mm 0.00 in0.0 mm
05:00 AM 26.7°F-2.9°C 10.2°F-12.1°C 49% 6.0 mph NNW9.7 kmh NNW 10.4 mph16.7 kmh 30.39 in1029.1 mb 0.00 in0.0 mm 0.00 in0.0 mm 0.00 in0.0 mm
04:55 AM 26.8°F-2.9°C 10.8°F-11.8°C 50% 8.0 mph NW12.9 kmh NW 11.9 mph19.2 kmh 30.39 in1029.1 mb 0.00 in0.0 mm 0.00 in0.0 mm 0.00 in0.0 mm
04:50 AM 27.0°F-2.8°C 11.5°F-11.4°C 52% 5.6 mph W9.0 kmh W 11.4 mph18.3 kmh 30.38 in1028.8 mb 0.00 in0.0 mm 0.00 in0.0 mm 0.00 in0.0 mm
04:45 AM 27.1°F-2.7°C 11.7°F-11.3°C 52% 4.4 mph SW7.1 kmh SW 5.8 mph9.3 kmh 30.38 in1028.8 mb 0.00 in0.0 mm 0.00 in0.0 mm 0.00 in0.0 mm
04:40 AM 27.3°F-2.6°C 11.6°F-11.3°C 51% 6.7 mph NNW10.8 kmh NNW 9.4 mph15.1 kmh 30.37 in1028.4 mb 0.00 in0.0 mm 0.00 in0.0 mm 0.00 in0.0 mm
04:35 AM 27.5°F-2.5°C 11.8°F-11.2°C 51% 6.4 mph ENE10.3 kmh ENE 12.5 mph20.1 kmh 30.37 in1028.4 mb 0.00 in0.0 mm 0.00 in0.0 mm 0.00 in0.0 mm
04:30 AM 27.7°F-2.4°C 12.0°F-11.1°C 51% 8.0 mph NW12.9 kmh NW 16.6 mph26.7 kmh 30.37 in1028.4 mb 0.00 in0.0 mm 0.00 in0.0 mm 0.00 in0.0 mm
04:25 AM 27.7°F-2.4°C 12.6°F-10.8°C 52% 6.6 mph NW10.6 kmh NW 15.0 mph24.1 kmh 30.37 in1028.4 mb 0.00 in0.0 mm 0.00 in0.0 mm 0.00 in0.0 mm
04:20 AM 27.9°F-2.3°C 13.0°F-10.6°C 53% 4.8 mph WSW7.7 kmh WSW 7.3 mph11.7 kmh 30.36 in1028.1 mb 0.00 in0.0 mm 0.00 in0.0 mm 0.00 in0.0 mm
04:15 AM 28.0°F-2.2°C 12.7°F-10.7°C 52% 6.9 mph WNW11.1 kmh WNW 10.9 mph17.5 kmh 30.35 in1027.8 mb 0.00 in0.0 mm 0.00 in0.0 mm 0.00 in0.0 mm
04:10 AM 28.0°F-2.2°C 12.7°F-10.7°C 52% 6.6 mph W10.6 kmh W 9.4 mph15.1 kmh 30.35 in1027.8 mb 0.00 in0.0 mm 0.00 in0.0 mm 0.00 in0.0 mm
04:05 AM 28.1°F-2.2°C 12.7°F-10.7°C 52% 6.0 mph WNW9.7 kmh WNW 10.9 mph17.5 kmh 30.35 in1027.8 mb 0.00 in0.0 mm 0.00 in0.0 mm 0.00 in0.0 mm
04:00 AM 28.3°F-2.1°C 12.6°F-10.8°C 51% 5.5 mph W8.9 kmh W 9.9 mph15.9 kmh 30.35 in1027.8 mb 0.00 in0.0 mm 0.00 in0.0 mm 0.00 in0.0 mm
03:55 AM 28.5°F-1.9°C 12.7°F-10.7°C 51% 8.2 mph W13.2 kmh W 15.0 mph24.1 kmh 30.34 in1027.4 mb 0.00 in0.0 mm 0.00 in0.0 mm 0.00 in0.0 mm
03:50 AM 28.6°F-1.9°C 12.8°F-10.7°C 51% 7.1 mph W11.4 kmh W 12.5 mph20.1 kmh 30.34 in1027.4 mb 0.00 in0.0 mm 0.00 in0.0 mm 0.00 in0.0 mm
03:45 AM 28.8°F-1.8°C 13.0°F-10.6°C 51% 8.5 mph W13.7 kmh W 14.0 mph22.5 kmh 30.33 in1027.1 mb 0.00 in0.0 mm 0.00 in0.0 mm 0.00 in0.0 mm
03:40 AM 28.8°F-1.8°C 13.5°F-10.3°C 52% 7.9 mph W12.7 kmh W 13.0 mph20.9 kmh 30.33 in1027.1 mb 0.00 in0.0 mm 0.00 in0.0 mm 0.00 in0.0 mm
03:35 AM 28.9°F-1.7°C 13.9°F-10.1°C 53% 9.0 mph NW14.5 kmh NW 15.0 mph24.1 kmh 30.33 in1027.1 mb 0.00 in0.0 mm 0.00 in0.0 mm 0.00 in0.0 mm
03:30 AM 29.0°F-1.7°C 14.0°F-10.0°C 53% 6.5 mph NNW10.5 kmh NNW 9.4 mph15.1 kmh 30.32 in1026.8 mb 0.00 in0.0 mm 0.00 in0.0 mm 0.00 in0.0 mm
03:25 AM 29.1°F-1.6°C 14.1°F-9.9°C 53% 5.9 mph SW9.5 kmh SW 8.3 mph13.4 kmh 30.32 in1026.8 mb 0.00 in0.0 mm 0.00 in0.0 mm 0.00 in0.0 mm
03:20 AM 29.2°F-1.6°C 14.3°F-9.8°C 53% 5.8 mph WSW9.3 kmh WSW 11.9 mph19.2 kmh 30.32 in1026.8 mb 0.00 in0.0 mm 0.00 in0.0 mm 0.00 in0.0 mm
03:15 AM 29.5°F-1.4°C 14.5°F-9.7°C 53% 6.0 mph W9.7 kmh W 10.9 mph17.5 kmh 30.32 in1026.8 mb 0.00 in0.0 mm 0.00 in0.0 mm 0.00 in0.0 mm
03:10 AM 29.7°F-1.3°C 14.7°F-9.6°C 53% 7.0 mph NW11.3 kmh NW 9.4 mph15.1 kmh 30.32 in1026.8 mb 0.00 in0.0 mm 0.00 in0.0 mm 0.00 in0.0 mm
03:05 AM 29.9°F-1.2°C 14.5°F-9.7°C 52% 4.6 mph WSW7.4 kmh WSW 8.3 mph13.4 kmh 30.30 in1026.1 mb 0.00 in0.0 mm 0.00 in0.0 mm 0.00 in0.0 mm
03:00 AM 30.1°F-1.1°C 14.5°F-9.7°C 52% 5.6 mph W9.0 kmh W 7.8 mph12.6 kmh 30.30 in1026.1 mb 0.00 in0.0 mm 0.00 in0.0 mm 0.00 in0.0 mm
02:55 AM 30.4°F-0.9°C 14.5°F-9.7°C 51% 7.7 mph W12.4 kmh W 13.5 mph21.7 kmh 30.30 in1026.1 mb 0.00 in0.0 mm 0.00 in0.0 mm 0.00 in0.0 mm
02:50 AM 30.5°F-0.8°C 14.5°F-9.7°C 51% 7.3 mph NE11.7 kmh NE 11.9 mph19.2 kmh 30.30 in1026.1 mb 0.00 in0.0 mm 0.00 in0.0 mm 0.00 in0.0 mm
02:45 AM 30.6°F-0.8°C 14.6°F-9.7°C 51% 9.3 mph NW15.0 kmh NW 13.0 mph20.9 kmh 30.29 in1025.7 mb 0.00 in0.0 mm 0.00 in0.0 mm 0.00 in0.0 mm
02:40 AM 30.6°F-0.8°C 14.8°F-9.6°C 51% 8.2 mph WSW13.2 kmh WSW 11.9 mph19.2 kmh 30.29 in1025.7 mb 0.00 in0.0 mm 0.00 in0.0 mm 0.00 in0.0 mm
02:35 AM 30.7°F-0.7°C 15.0°F-9.4°C 52% 7.9 mph NW12.7 kmh NW 13.0 mph20.9 kmh 30.29 in1025.7 mb 0.00 in0.0 mm 0.00 in0.0 mm 0.00 in0.0 mm
02:30 AM 30.8°F-0.7°C 14.9°F-9.5°C 51% 7.6 mph WSW12.2 kmh WSW 14.0 mph22.5 kmh 30.29 in1025.7 mb 0.00 in0.0 mm 0.00 in0.0 mm 0.00 in0.0 mm
02:25 AM 30.9°F-0.6°C 14.9°F-9.5°C 51% 8.3 mph W13.4 kmh W 10.4 mph16.7 kmh 30.29 in1025.7 mb 0.00 in0.0 mm 0.00 in0.0 mm 0.00 in0.0 mm
02:20 AM 31.0°F-0.6°C 15.0°F-9.4°C 51% 6.9 mph WNW11.1 kmh WNW 9.9 mph15.9 kmh 30.29 in1025.7 mb 0.00 in0.0 mm 0.00 in0.0 mm 0.00 in0.0 mm
02:15 AM 31.1°F-0.5°C 15.1°F-9.4°C 51% 6.6 mph WNW10.6 kmh WNW 13.5 mph21.7 kmh 30.28 in1025.4 mb 0.00 in0.0 mm 0.00 in0.0 mm 0.00 in0.0 mm
02:10 AM 31.1°F-0.5°C 15.1°F-9.4°C 51% 6.8 mph WNW10.9 kmh WNW 11.9 mph19.2 kmh 30.28 in1025.4 mb 0.00 in0.0 mm 0.00 in0.0 mm 0.00 in0.0 mm
02:05 AM 31.2°F-0.4°C 16.2°F-8.8°C 53% 7.1 mph NNW11.4 kmh NNW 15.0 mph24.1 kmh 30.27 in1025.1 mb 0.00 in0.0 mm 0.00 in0.0 mm 0.00 in0.0 mm
02:00 AM 31.4°F-0.3°C 16.7°F-8.5°C 54% 5.7 mph N9.2 kmh N 10.4 mph16.7 kmh 30.27 in1025.1 mb 0.00 in0.0 mm 0.00 in0.0 mm 0.00 in0.0 mm
01:55 AM 31.6°F-0.2°C 16.9°F-8.4°C 54% 6.7 mph WNW10.8 kmh WNW 13.5 mph21.7 kmh 30.26 in1024.7 mb 0.00 in0.0 mm 0.00 in0.0 mm 0.00 in0.0 mm
01:50 AM 31.6°F-0.2°C 16.9°F-8.4°C 54% 8.9 mph NW14.3 kmh NW 13.0 mph20.9 kmh 30.26 in1024.7 mb 0.00 in0.0 mm 0.00 in0.0 mm 0.00 in0.0 mm
01:45 AM 31.6°F-0.2°C 16.8°F-8.4°C 54% 5.9 mph NW9.5 kmh NW 9.9 mph15.9 kmh 30.26 in1024.7 mb 0.00 in0.0 mm 0.00 in0.0 mm 0.00 in0.0 mm
01:40 AM 31.8°F-0.1°C 16.7°F-8.5°C 53% 7.4 mph ESE11.9 kmh ESE 10.9 mph17.5 kmh 30.25 in1024.4 mb 0.00 in0.0 mm 0.00 in0.0 mm 0.00 in0.0 mm
01:35 AM 32.0°F0.0°C 16.8°F-8.4°C 53% 7.9 mph W12.7 kmh W 14.5 mph23.3 kmh 30.25 in1024.4 mb 0.00 in0.0 mm 0.00 in0.0 mm 0.00 in0.0 mm
01:30 AM 32.2°F0.1°C 17.0°F-8.3°C 53% 9.3 mph N15.0 kmh N 13.0 mph20.9 kmh 30.24 in1024.0 mb 0.00 in0.0 mm 0.00 in0.0 mm 0.00 in0.0 mm
01:25 AM 32.2°F0.1°C 18.2°F-7.7°C 56% 9.5 mph W15.3 kmh W 23.3 mph37.5 kmh 30.24 in1024.0 mb 0.00 in0.0 mm 0.00 in0.0 mm 0.00 in0.0 mm
01:20 AM 32.2°F0.1°C 19.3°F-7.1°C 58% 8.5 mph N13.7 kmh N 15.0 mph24.1 kmh 30.24 in1024.0 mb 0.00 in0.0 mm 0.00 in0.0 mm 0.00 in0.0 mm
01:15 AM 32.2°F0.1°C 19.6°F-6.9°C 59% 5.6 mph NNE9.0 kmh NNE 9.4 mph15.1 kmh 30.23 in1023.7 mb 0.00 in0.0 mm 0.00 in0.0 mm 0.00 in0.0 mm
01:10 AM 32.3°F0.2°C 20.0°F-6.7°C 60% 4.0 mph WSW6.4 kmh WSW 6.3 mph10.1 kmh 30.23 in1023.7 mb 0.00 in0.0 mm 0.00 in0.0 mm 0.00 in0.0 mm
01:05 AM 32.5°F0.3°C 20.1°F-6.6°C 60% 4.6 mph SW7.4 kmh SW 7.8 mph12.6 kmh 30.22 in1023.4 mb 0.00 in0.0 mm 0.00 in0.0 mm 0.00 in0.0 mm
01:00 AM 32.7°F0.4°C 20.0°F-6.7°C 59% 5.2 mph N8.4 kmh N 7.8 mph12.6 kmh 30.22 in1023.4 mb 0.00 in0.0 mm 0.00 in0.0 mm 0.00 in0.0 mm
12:55 AM 32.9°F0.5°C 19.6°F-6.9°C 58% 6.2 mph WNW10.0 kmh WNW 14.0 mph22.5 kmh 30.21 in1023.0 mb 0.00 in0.0 mm 0.00 in0.0 mm 0.00 in0.0 mm
12:50 AM 33.0°F0.6°C 19.3°F-7.1°C 57% 6.3 mph E10.1 kmh E 10.9 mph17.5 kmh 30.21 in1023.0 mb 0.00 in0.0 mm 0.00 in0.0 mm 0.00 in0.0 mm
12:45 AM 33.2°F0.7°C 19.2°F-7.1°C 56% 5.9 mph WNW9.5 kmh WNW 8.3 mph13.4 kmh 30.21 in1023.0 mb 0.00 in0.0 mm 0.00 in0.0 mm 0.00 in0.0 mm
12:40 AM 33.3°F0.7°C 19.3°F-7.1°C 56% 5.2 mph WNW8.4 kmh WNW 8.3 mph13.4 kmh 30.20 in1022.7 mb 0.00 in0.0 mm 0.00 in0.0 mm 0.00 in0.0 mm
12:35 AM 33.5°F0.8°C 19.0°F-7.2°C 55% 6.0 mph W9.7 kmh W 8.9 mph14.3 kmh 30.20 in1022.7 mb 0.00 in0.0 mm 0.00 in0.0 mm 0.00 in0.0 mm
12:30 AM 33.6°F0.9°C 19.2°F-7.1°C 55% 7.3 mph NW11.7 kmh NW 11.9 mph19.2 kmh 30.20 in1022.7 mb 0.00 in0.0 mm 0.00 in0.0 mm 0.00 in0.0 mm
12:25 AM 33.6°F0.9°C 19.2°F-7.1°C 55% 8.2 mph WNW13.2 kmh WNW 14.5 mph23.3 kmh 30.20 in1022.7 mb 0.00 in0.0 mm 0.00 in0.0 mm 0.00 in0.0 mm
12:20 AM 33.8°F1.0°C 19.4°F-7.0°C 55% 6.6 mph W10.6 kmh W 7.8 mph12.6 kmh 30.19 in1022.4 mb 0.00 in0.0 mm 0.00 in0.0 mm 0.00 in0.0 mm
12:15 AM 33.8°F1.0°C 19.8°F-6.8°C 56% 7.9 mph NW12.7 kmh NW 14.5 mph23.3 kmh 30.18 in1022.0 mb 0.00 in0.0 mm 0.00 in0.0 mm 0.00 in0.0 mm
12:10 AM 33.8°F1.0°C 19.6°F-6.9°C 56% 6.2 mph NW10.0 kmh NW 10.9 mph17.5 kmh 30.18 in1022.0 mb 0.00 in0.0 mm 0.00 in0.0 mm 0.00 in0.0 mm
12:05 AM 34.0°F1.1°C 19.4°F-7.0°C 55% 6.5 mph NW10.5 kmh NW 9.9 mph15.9 kmh 30.19 in1022.4 mb 0.00 in0.0 mm 0.00 in0.0 mm 0.00 in0.0 mm
12:00 AM 34.1°F1.2°C 19.2°F-7.1°C 54% 5.0 mph W8.0 kmh W 7.3 mph11.7 kmh 30.19 in1022.4 mb 0.00 in0.0 mm 0.00 in0.0 mm 0.00 in0.0 mm